Carbon, Indiana
Current Conditions -  °F | °C
As of 5:53 AM on Sunday 23 Nov 2014 (Local Time) from KHUF Reporting Station
Clear Clear  
Wind Chill: 44°   Ceiling: Unl
Heat Index: 49°   Visibility: 10mi
Dew Point: 40°   Wind: 12mph
Humidity: 71%   Direction: 160°SSE
Pressure: 29.87"   Gusts: NA
Location:  39.6°N, 87.12°W
Report Text: KHUF 231053Z 16010KT 10SM CLR 09/04 A2987 RMK AO2 SLP114 T00940044
Loading
Personal Weather Stations






























Interactive Weather Map New forecast layout! Learn more

10-Day Weather Forecast

Advertisements
Track Severe Weather on mobile